Time;durP1;ratioP1;P1;durP2;ratioP2;P2;SDS_P1;SDS_P2;PMS_P1;PMS_P2;Temp;Humidity;BMP_temperature;BMP_pressure;BME280_temperature;BME280_humidity;BME280_pressure;Samples;Min_cycle;Max_cycle;Signal;HPM_P1;HPM_P2
2021/10/04 00:00:34;;;;;;;37.98;20.75;;;;;;;8.34;70.23;101050.58;1851784;77;21046;-70
2021/10/04 00:03:00;;;;;;;45.73;22.52;;;;;;;8.37;70.21;101046.64;1847136;77;21175;-68
2021/10/04 00:05:26;;;;;;;34.55;20.88;;;;;;;8.38;70.19;101046.97;1847302;77;21534;-71
2021/10/04 00:07:53;;;;;;;36.15;24.32;;;;;;;8.42;70.16;101041.00;1826677;77;20956;-71
2021/10/04 00:10:20;;;;;;;29.27;19.80;;;;;;;8.49;70.16;101035.12;1826265;77;20931;-73
2021/10/04 00:12:48;;;;;;;41.92;21.73;;;;;;;8.56;70.08;101036.48;1830763;77;22260;-73
2021/10/04 00:15:18;;;;;;;33.53;21.12;;;;;;;8.57;69.79;101029.59;1832038;77;22092;-74
2021/10/04 00:17:44;;;;;;;31.75;20.88;;;;;;;8.56;69.68;101024.42;1809990;78;20950;-71
2021/10/04 00:20:12;;;;;;;32.55;22.73;;;;;;;8.54;69.50;101023.78;1802297;78;21067;-72
2021/10/04 00:22:38;;;;;;;31.87;19.60;;;;;;;8.53;69.51;101026.17;1777883;79;20981;-72
2021/10/04 00:25:06;;;;;;;33.20;19.57;;;;;;;8.51;69.37;101022.86;1800629;79;22109;-72
2021/10/04 00:27:33;;;;;;;37.30;20.72;;;;;;;8.46;69.46;101019.95;1800661;79;21026;-73
2021/10/04 00:30:05;;;;;;;29.67;20.92;;;;;;;8.46;69.47;101019.95;1801111;79;20926;-72
2021/10/04 00:32:27;;;;;;;29.05;20.45;;;;;;;8.45;69.37;101016.45;1777177;79;21419;-71
2021/10/04 00:34:53;;;;;;;31.30;20.60;;;;;;;8.46;69.26;101022.13;1777960;79;21506;-71
2021/10/04 00:37:19;;;;;;;30.82;18.40;;;;;;;8.47;69.13;101025.12;1800412;79;21511;-74
2021/10/04 00:39:47;;;;;;;31.90;20.75;;;;;;;8.43;69.13;101022.55;1809371;78;21355;-72
2021/10/04 00:42:13;;;;;;;35.43;21.35;;;;;;;8.32;69.25;101016.42;1777975;79;21599;-68
2021/10/04 00:44:40;;;;;;;31.85;20.75;;;;;;;8.25;69.37;101016.87;1778075;79;21517;-69
2021/10/04 00:47:06;;;;;;;31.62;21.48;;;;;;;8.23;69.43;101020.30;1800371;79;20940;-69
2021/10/04 00:49:33;;;;;;;24.63;16.95;;;;;;;8.19;69.53;101020.39;1804027;79;21497;-68
2021/10/04 00:51:59;;;;;;;28.27;18.98;;;;;;;8.13;69.58;101018.00;1777598;79;21586;-68
2021/10/04 00:54:25;;;;;;;31.73;19.65;;;;;;;8.07;69.77;101020.13;1800981;79;21077;-68
2021/10/04 00:56:51;;;;;;;35.75;21.97;;;;;;;8.01;69.98;101023.60;1800526;79;20945;-69
2021/10/04 00:59:19;;;;;;;24.32;17.82;;;;;;;8.00;70.11;101027.84;1800886;78;20991;-69
2021/10/04 01:01:45;;;;;;;28.05;21.50;;;;;;;7.98;70.27;101024.02;1800562;79;21069;-70
2021/10/04 01:04:11;;;;;;;32.95;18.57;;;;;;;7.95;70.38;101028.45;1800843;79;21066;-69
2021/10/04 01:06:38;;;;;;;33.30;21.48;;;;;;;7.94;70.63;101027.30;1777789;79;20998;-69
2021/10/04 01:09:04;;;;;;;49.70;19.75;;;;;;;7.88;70.78;101024.39;1800760;79;20978;-70
2021/10/04 01:11:30;;;;;;;29.02;18.57;;;;;;;7.91;70.92;101024.52;1800509;79;21018;-68
2021/10/04 01:13:58;;;;;;;26.10;19.32;;;;;;;7.92;70.85;101023.98;1800871;79;20914;-69
2021/10/04 01:16:25;;;;;;;35.08;19.05;;;;;;;7.90;70.90;101022.86;1810317;77;21205;-66
2021/10/04 01:18:51;;;;;;;35.88;20.52;;;;;;;7.90;70.91;101028.22;1853232;77;20918;-65
2021/10/04 01:21:17;;;;;;;31.90;22.58;;;;;;;7.91;70.84;101025.03;1819566;78;20967;-67
2021/10/04 01:23:44;;;;;;;31.95;19.52;;;;;;;7.94;70.76;101034.82;1838746;78;21023;-68
2021/10/04 01:26:12;;;;;;;31.95;19.15;;;;;;;7.92;70.59;101032.02;1838902;78;20923;-67
2021/10/04 01:28:38;;;;;;;32.48;21.07;;;;;;;7.85;70.63;101036.02;1838772;78;21155;-68
2021/10/04 01:31:05;;;;;;;27.87;18.77;;;;;;;7.76;70.74;101032.69;1838936;77;21035;-68
2021/10/04 01:33:32;;;;;;;33.28;21.30;;;;;;;7.74;70.87;101037.41;1838584;78;20947;-67
2021/10/04 01:35:58;;;;;;;27.42;18.67;;;;;;;7.69;70.95;101030.98;1838659;77;20999;-68
2021/10/04 01:38:24;;;;;;;31.05;20.45;;;;;;;7.63;71.14;101029.09;1812885;78;21023;-68
2021/10/04 01:40:51;;;;;;;33.05;20.48;;;;;;;7.54;71.35;101031.62;1821549;78;22053;-68
2021/10/04 01:43:17;;;;;;;34.98;24.20;;;;;;;7.47;71.56;101037.45;1848331;77;20998;-69
2021/10/04 01:45:45;;;;;;;29.95;22.85;;;;;;;7.42;71.85;101044.23;1838834;77;20909;-67
2021/10/04 01:48:11;;;;;;;37.03;23.57;;;;;;;7.41;71.91;101050.60;1833637;77;20988;-67
2021/10/04 01:50:38;;;;;;;25.90;19.90;;;;;;;7.43;71.98;101050.41;1834133;77;21024;-67
2021/10/04 01:53:07;;;;;;;27.98;21.77;;;;;;;7.46;72.09;101050.02;1780471;79;21020;-67
2021/10/04 01:55:33;;;;;;;40.75;20.52;;;;;;;7.42;72.00;101042.89;1780609;79;20942;-67
2021/10/04 01:58:00;;;;;;;37.15;20.80;;;;;;;7.41;72.02;101036.39;1807827;79;21074;-68
2021/10/04 02:00:26;;;;;;;28.73;20.85;;;;;;;7.46;71.94;101024.58;1784365;78;20989;-68
2021/10/04 02:02:54;;;;;;;32.30;20.70;;;;;;;7.49;71.84;101030.88;1806050;78;21014;-68
2021/10/04 02:05:20;;;;;;;32.23;20.80;;;;;;;7.50;71.76;101029.85;1802517;79;20966;-69
2021/10/04 02:07:49;;;;;;;29.48;20.82;;;;;;;7.49;71.72;101039.41;1775490;79;20993;-66
2021/10/04 02:10:20;;;;;;;31.52;20.08;;;;;;;7.43;71.78;101051.22;1806385;79;21457;-74
2021/10/04 02:12:47;;;;;;;23.32;17.60;;;;;;;7.41;71.78;101052.45;1789534;79;20971;-68
2021/10/04 02:15:14;;;;;;;23.98;16.90;;;;;;;7.39;71.77;101055.81;1807422;79;21591;-75
2021/10/04 02:17:42;;;;;;;23.57;16.50;;;;;;;7.33;71.76;101049.42;1783163;79;21536;-65
2021/10/04 02:20:12;;;;;;;25.92;16.93;;;;;;;7.25;72.00;101054.07;1807054;79;21047;-66
2021/10/04 02:22:38;;;;;;;29.52;17.87;;;;;;;7.19;72.10;101056.20;1805987;79;20963;-66
2021/10/04 02:25:06;;;;;;;28.45;18.17;;;;;;;7.13;72.28;101055.64;1774987;79;21480;-68
2021/10/04 02:27:33;;;;;;;32.45;19.12;;;;;;;7.13;72.44;101054.30;1774776;79;20993;-69
2021/10/04 02:30:00;;;;;;;26.20;19.07;;;;;;;7.11;72.54;101054.48;1850658;77;21846;-69
2021/10/04 02:32:26;;;;;;;21.87;16.87;;;;;;;7.15;72.60;101052.24;1853188;77;20940;-69
2021/10/04 02:34:52;;;;;;;33.42;20.88;;;;;;;7.18;72.55;101051.88;1826949;77;20940;-67
2021/10/04 02:37:19;;;;;;;29.63;20.52;;;;;;;7.18;72.50;101058.56;1853465;77;21062;-67
2021/10/04 02:39:45;;;;;;;29.35;18.73;;;;;;;7.20;72.44;101058.67;1829680;77;20984;-68
2021/10/04 02:42:12;;;;;;;32.05;20.35;;;;;;;7.17;72.32;101062.25;1808174;77;21246;-68
2021/10/04 02:44:38;;;;;;;26.05;18.62;;;;;;;7.14;72.40;101061.31;1806450;79;21492;-69
2021/10/04 02:47:04;;;;;;;26.42;18.60;;;;;;;7.10;72.45;101062.19;1807484;79;20959;-68
2021/10/04 02:49:30;;;;;;;19.52;16.05;;;;;;;7.05;72.58;101060.60;1807231;79;20927;-68
2021/10/04 02:51:56;;;;;;;34.83;17.52;;;;;;;7.00;72.71;101064.39;1807321;79;21000;-71
2021/10/04 02:54:23;;;;;;;30.68;18.27;;;;;;;6.97;72.82;101054.89;1807486;79;21067;-70
2021/10/04 02:56:49;;;;;;;31.37;21.73;;;;;;;6.96;72.84;101056.41;1777901;79;21011;-70
2021/10/04 02:59:15;;;;;;;28.23;19.80;;;;;;;6.94;72.93;101059.81;1761766;79;20955;-69
2021/10/04 03:01:42;;;;;;;38.25;20.48;;;;;;;6.90;73.05;101058.55;1783649;79;21047;-70
2021/10/04 03:04:10;;;;;;;32.08;17.80;;;;;;;6.88;73.16;101065.92;1807335;79;20963;-70
2021/10/04 03:06:36;;;;;;;21.97;14.68;;;;;;;6.93;73.18;101063.50;1777958;79;21956;-69
2021/10/04 03:09:04;;;;;;;21.30;14.70;;;;;;;6.98;72.82;101064.58;1777553;79;21103;-69
2021/10/04 03:11:30;;;;;;;20.00;15.18;;;;;;;7.00;72.67;101064.39;1777972;79;21019;-70
2021/10/04 03:13:56;;;;;;;21.93;14.53;;;;;;;6.96;72.54;101071.95;1805507;79;20935;-68
2021/10/04 03:16:23;;;;;;;30.55;15.95;;;;;;;6.92;72.75;101067.19;1806276;79;21500;-68
2021/10/04 03:18:49;;;;;;;22.70;14.87;;;;;;;6.84;73.02;101073.50;1774794;79;21095;-68
2021/10/04 03:21:15;;;;;;;25.72;15.32;;;;;;;6.77;73.24;101068.59;1757705;80;20952;-71
2021/10/04 03:23:41;;;;;;;31.97;16.30;;;;;;;6.74;73.38;101076.17;1780374;79;21002;-69
2021/10/04 03:26:08;;;;;;;22.62;14.70;;;;;;;6.71;73.41;101073.89;1807924;79;21559;-70
2021/10/04 03:28:34;;;;;;;18.17;14.43;;;;;;;6.72;73.53;101072.84;1791603;79;21019;-69
2021/10/04 03:31:00;;;;;;;25.82;13.15;;;;;;;6.73;73.32;101064.64;1808115;79;21844;-68
2021/10/04 03:33:26;;;;;;;25.88;15.90;;;;;;;6.78;73.26;101066.23;1793237;78;21533;-70
2021/10/04 03:35:53;;;;;;;19.50;14.68;;;;;;;6.83;73.23;101069.67;1790156;79;21477;-69
2021/10/04 03:38:19;;;;;;;23.40;15.48;;;;;;;6.84;73.16;101069.49;1792215;79;21581;-70
2021/10/04 03:40:45;;;;;;;21.70;13.80;;;;;;;6.86;73.15;101071.45;1780876;79;21536;-70
2021/10/04 03:43:12;;;;;;;30.72;18.40;;;;;;;6.90;73.08;101075.42;1807620;78;21277;-70
2021/10/04 03:45:38;;;;;;;21.45;15.65;;;;;;;6.87;73.03;101074.45;1780702;79;21015;-71
2021/10/04 03:48:04;;;;;;;20.72;13.35;;;;;;;6.88;73.02;101081.97;1807876;79;20932;-67
2021/10/04 03:50:31;;;;;;;22.93;16.02;;;;;;;6.87;72.97;101077.63;1807793;79;21978;-66
2021/10/04 03:52:57;;;;;;;22.02;13.90;;;;;;;6.80;73.02;101071.41;1755882;80;21472;-69
2021/10/04 03:55:23;;;;;;;29.07;16.42;;;;;;;6.75;73.14;101080.51;1767921;79;21953;-70
2021/10/04 03:57:50;;;;;;;29.77;16.40;;;;;;;6.76;73.18;101080.30;1736076;81;20949;-71
2021/10/04 04:00:19;;;;;;;30.82;15.75;;;;;;;6.76;73.21;101084.84;1791510;78;20950;-68
2021/10/04 04:02:45;;;;;;;23.57;15.25;;;;;;;6.78;73.25;101082.79;1851743;77;21532;-68
2021/10/04 04:05:11;;;;;;;28.62;14.80;;;;;;;6.81;73.12;101083.23;1838213;77;21011;-70
2021/10/04 04:07:38;;;;;;;28.73;15.63;;;;;;;6.82;73.02;101083.55;1838994;76;21080;-69
2021/10/04 04:10:07;;;;;;;24.25;15.00;;;;;;;6.81;72.88;101088.58;1812909;78;21567;-67
2021/10/04 04:12:34;;;;;;;26.73;16.62;;;;;;;6.77;72.89;101086.47;1787458;77;21039;-67
2021/10/04 04:15:00;;;;;;;23.30;12.80;;;;;;;6.74;72.97;101094.89;1829310;77;20994;-67
2021/10/04 04:17:27;;;;;;;19.05;15.48;;;;;;;6.74;72.99;101101.06;1814075;77;20988;-72
2021/10/04 04:19:53;;;;;;;17.37;13.88;;;;;;;6.75;72.87;101107.25;1853086;77;21034;-69
2021/10/04 04:22:19;;;;;;;25.52;14.25;;;;;;;6.79;72.87;101108.52;1838030;77;20944;-68
2021/10/04 04:24:45;;;;;;;25.12;16.60;;;;;;;6.80;72.84;101107.50;1821990;78;20963;-67
2021/10/04 04:27:11;;;;;;;22.15;14.40;;;;;;;6.78;72.84;101108.19;1833967;78;21028;-68
2021/10/04 04:29:38;;;;;;;18.20;12.05;;;;;;;6.81;72.86;101109.17;1833970;77;20972;-68
2021/10/04 04:32:07;;;;;;;17.52;13.25;;;;;;;6.88;72.46;101118.90;1821730;77;21301;-69
2021/10/04 04:34:33;;;;;;;21.90;13.62;;;;;;;6.94;72.10;101115.97;1852889;77;21496;-67
2021/10/04 04:36:59;;;;;;;21.75;12.23;;;;;;;7.01;71.76;101114.17;1829284;77;21506;-66
2021/10/04 04:39:27;;;;;;;29.55;13.78;;;;;;;7.05;71.63;101119.99;1852625;77;21533;-68
2021/10/04 04:41:56;;;;;;;26.50;14.35;;;;;;;7.06;71.56;101118.95;1853375;77;20988;-68
2021/10/04 04:44:22;;;;;;;45.78;18.82;;;;;;;7.06;71.59;101124.30;1853146;77;21120;-67
2021/10/04 04:46:50;;;;;;;48.30;18.25;;;;;;;7.04;71.56;101119.67;1829136;77;20956;-66
2021/10/04 04:49:19;;;;;;;42.73;18.57;;;;;;;7.01;71.55;101120.86;1823803;78;20979;-71
2021/10/04 04:51:46;;;;;;;42.38;17.80;;;;;;;7.02;71.72;101121.19;1819739;78;20971;-70
2021/10/04 04:54:12;;;;;;;43.73;17.62;;;;;;;7.04;71.78;101125.02;1796625;78;21479;-70
2021/10/04 04:56:39;;;;;;;48.15;19.73;;;;;;;7.03;71.84;101124.19;1822839;77;21066;-68
2021/10/04 04:59:05;;;;;;;40.12;18.20;;;;;;;7.05;72.00;101122.67;1849970;77;20952;-70
2021/10/04 05:01:32;;;;;;;53.17;18.42;;;;;;;7.03;72.05;101120.68;1810313;78;20927;-68
2021/10/04 05:03:58;;;;;;;56.02;21.02;;;;;;;7.05;72.19;101119.45;1810100;78;20939;-68
2021/10/04 05:06:24;;;;;;;65.08;24.30;;;;;;;7.11;72.09;101119.20;1810395;78;21484;-69
2021/10/04 05:08:50;;;;;;;48.45;20.30;;;;;;;7.14;72.01;101125.02;1833947;78;21064;-69
2021/10/04 05:11:17;;;;;;;34.67;18.52;;;;;;;7.21;72.01;101119.70;1834049;77;21029;-69
2021/10/04 05:13:43;;;;;;;38.65;20.43;;;;;;;7.27;71.72;101123.78;1845735;76;24693;-69
2021/10/04 05:16:10;;;;;;;38.38;18.73;;;;;;;7.30;71.54;101123.89;1819174;78;21068;-69
2021/10/04 05:18:36;;;;;;;36.75;16.95;;;;;;;7.35;71.35;101124.14;1757565;80;20992;-69
2021/10/04 05:21:02;;;;;;;40.15;18.73;;;;;;;7.39;71.09;101119.55;1807265;79;21181;-68
2021/10/04 05:23:30;;;;;;;33.85;19.20;;;;;;;7.44;70.85;101123.81;1771551;80;21016;-71
2021/10/04 05:25:56;;;;;;;53.55;22.48;;;;;;;7.52;70.67;101128.22;1745092;80;21048;-69
2021/10/04 05:28:22;;;;;;;32.88;19.60;;;;;;;7.56;70.42;101124.63;1774933;79;21046;-69
2021/10/04 05:30:49;;;;;;;32.75;16.60;;;;;;;7.61;70.15;101125.70;1777382;79;21058;-69
2021/10/04 05:33:15;;;;;;;25.65;17.23;;;;;;;7.64;69.90;101127.98;1777748;79;21204;-67
2021/10/04 05:35:41;;;;;;;27.30;15.00;;;;;;;7.66;69.90;101128.63;1777694;79;21096;-68
2021/10/04 05:38:08;;;;;;;26.97;14.85;;;;;;;7.70;69.95;101136.58;1804031;79;20993;-70
2021/10/04 05:40:34;;;;;;;29.98;17.40;;;;;;;7.73;69.80;101134.83;1802199;79;20964;-70
2021/10/04 05:43:00;;;;;;;27.07;15.90;;;;;;;7.78;69.80;101135.58;1802274;79;21239;-69
2021/10/04 05:45:27;;;;;;;28.32;14.95;;;;;;;7.86;69.68;101140.27;1799595;78;20931;-70
2021/10/04 05:47:53;;;;;;;20.00;13.03;;;;;;;7.95;69.52;101142.30;1779780;80;20948;-73
2021/10/04 05:50:20;;;;;;;24.30;14.13;;;;;;;8.02;69.27;101145.00;1777683;79;20971;-70
2021/10/04 05:52:46;;;;;;;30.68;15.65;;;;;;;8.07;69.22;101139.88;1777533;79;21514;-70
2021/10/04 05:55:12;;;;;;;26.80;17.15;;;;;;;8.12;69.07;101153.00;1807105;79;20931;-69
2021/10/04 05:57:39;;;;;;;24.27;16.62;;;;;;;8.15;68.83;101149.92;1777628;79;21093;-69
2021/10/04 06:00:08;;;;;;;28.30;19.05;;;;;;;8.18;68.77;101148.20;1806719;79;20992;-70
2021/10/04 06:02:34;;;;;;;39.75;20.40;;;;;;;8.21;68.77;101147.80;1743664;80;20982;-75
2021/10/04 06:05:00;;;;;;;31.50;19.87;;;;;;;8.24;68.97;101146.59;1746719;80;21077;-69
2021/10/04 06:07:28;;;;;;;29.50;17.62;;;;;;;8.29;68.93;101146.82;1775662;80;21018;-69
2021/10/04 06:09:55;;;;;;;35.83;16.87;;;;;;;8.34;68.89;101144.40;1775270;80;21264;-68
2021/10/04 06:12:26;;;;;;;54.48;26.70;;;;;;;8.37;68.87;101145.33;1775450;80;21043;-71
2021/10/04 06:14:50;;;;;;;50.48;24.75;;;;;;;8.38;68.73;101143.48;1763182;79;21035;-69
2021/10/04 06:17:16;;;;;;;43.33;21.42;;;;;;;8.40;68.80;101140.06;1829645;78;21034;-69
2021/10/04 06:19:43;;;;;;;35.28;22.50;;;;;;;8.42;68.82;101144.22;1819275;78;21141;-69
2021/10/04 06:22:09;;;;;;;37.93;23.38;;;;;;;8.46;68.76;101144.12;1797499;78;21029;-70
2021/10/04 06:24:35;;;;;;;45.70;24.00;;;;;;;8.50;68.64;101144.55;1799578;78;20888;-71
2021/10/04 06:27:02;;;;;;;37.53;23.52;;;;;;;8.55;68.68;101142.92;1799315;78;21028;-69
2021/10/04 06:29:28;;;;;;;40.45;22.85;;;;;;;8.62;68.45;101146.98;1797437;78;21042;-71
2021/10/04 06:31:54;;;;;;;30.77;21.00;;;;;;;8.67;68.30;101145.86;1799363;78;21057;-70
2021/10/04 06:34:21;;;;;;;39.23;19.82;;;;;;;8.71;68.29;101146.59;1820213;78;21071;-71
2021/10/04 06:36:47;;;;;;;33.25;17.77;;;;;;;8.76;68.40;101150.02;1799529;78;20951;-70
2021/10/04 06:39:13;;;;;;;38.45;18.12;;;;;;;8.84;68.33;101152.50;1798909;78;21010;-67
2021/10/04 06:41:41;;;;;;;26.57;16.60;;;;;;;8.91;68.34;101155.20;1820273;78;20977;-68
2021/10/04 06:44:09;;;;;;;27.62;15.63;;;;;;;8.98;68.22;101147.98;1799343;78;21511;-69
2021/10/04 06:46:37;;;;;;;34.35;15.05;;;;;;;9.03;68.16;101151.71;1820006;78;21187;-72
2021/10/04 06:49:04;;;;;;;43.23;17.27;;;;;;;9.10;68.18;101149.88;1819820;78;20973;-74
2021/10/04 06:51:31;;;;;;;38.78;17.65;;;;;;;9.20;68.10;101153.51;1826052;78;20959;-69
2021/10/04 06:53:57;;;;;;;33.10;18.23;;;;;;;9.34;68.09;101155.69;1820623;78;20939;-68
2021/10/04 06:56:24;;;;;;;42.20;19.00;;;;;;;9.48;67.79;101156.83;1820377;78;21116;-70
2021/10/04 06:58:51;;;;;;;37.65;18.75;;;;;;;9.59;67.50;101153.50;1820636;78;21085;-69
2021/10/04 07:01:18;;;;;;;36.28;16.15;;;;;;;9.73;67.25;101153.51;1799313;78;21483;-69
2021/10/04 07:03:44;;;;;;;37.10;17.62;;;;;;;9.84;66.93;101157.71;1820312;78;21031;-70
2021/10/04 07:06:10;;;;;;;24.52;14.65;;;;;;;9.93;66.72;101152.94;1820286;78;21021;-69
2021/10/04 07:08:36;;;;;;;26.25;14.07;;;;;;;10.01;66.35;101149.53;1820402;78;20982;-69
2021/10/04 07:11:03;;;;;;;16.42;12.53;;;;;;;10.05;65.83;101152.11;1799068;78;21165;-78
2021/10/04 07:13:30;;;;;;;32.60;14.75;;;;;;;10.10;65.64;101154.16;1820017;78;21556;-71
2021/10/04 07:15:56;;;;;;;37.05;13.70;;;;;;;10.17;65.49;101152.84;1798780;78;21018;-72
2021/10/04 07:18:22;;;;;;;34.03;13.58;;;;;;;10.24;65.32;101145.56;1827734;77;21536;-64
2021/10/04 07:20:49;;;;;;;32.85;17.65;;;;;;;10.29;65.10;101141.72;1826557;77;21071;-66
2021/10/04 07:23:16;;;;;;;21.45;14.80;;;;;;;10.37;64.73;101145.50;1828826;77;21078;-66
2021/10/04 07:25:42;;;;;;;24.55;15.58;;;;;;;10.43;64.20;101146.01;1823316;77;20977;-69
2021/10/04 07:28:08;;;;;;;20.75;12.68;;;;;;;10.49;64.01;101143.82;1836622;77;20921;-70
2021/10/04 07:30:35;;;;;;;16.12;12.50;;;;;;;10.56;63.52;101141.91;1816117;77;21477;-72
2021/10/04 07:33:03;;;;;;;19.50;12.78;;;;;;;10.65;63.18;101147.86;1825817;77;21015;-69
2021/10/04 07:35:30;;;;;;;28.45;16.40;;;;;;;10.73;62.91;101147.64;1846000;77;21120;-70
2021/10/04 07:37:57;;;;;;;22.77;13.55;;;;;;;10.82;62.69;101147.17;1823413;77;21576;-69
2021/10/04 07:40:23;;;;;;;18.15;12.45;;;;;;;10.90;62.36;101150.94;1821014;77;21474;-72
2021/10/04 07:42:50;;;;;;;21.07;11.68;;;;;;;11.00;61.92;101148.30;1798748;77;21012;-70
2021/10/04 07:45:16;;;;;;;17.42;11.63;;;;;;;11.09;61.20;101148.34;1832335;77;21055;-69
2021/10/04 07:47:43;;;;;;;21.73;12.45;;;;;;;11.19;60.85;101150.86;1804993;78;21087;-69
2021/10/04 07:50:11;;;;;;;20.77;13.30;;;;;;;11.29;60.56;101147.16;1819091;77;20885;-68
2021/10/04 07:52:38;;;;;;;16.45;11.95;;;;;;;11.40;60.35;101151.55;1825906;77;21006;-68
2021/10/04 07:55:05;;;;;;;17.92;12.53;;;;;;;11.49;59.72;101149.70;1848318;77;21016;-69
2021/10/04 07:57:32;;;;;;;17.27;12.07;;;;;;;11.60;59.05;101150.34;1826678;77;21004;-69
2021/10/04 07:59:59;;;;;;;19.85;11.78;;;;;;;11.70;57.74;101147.14;1826935;77;21079;-67
2021/10/04 08:02:25;;;;;;;16.87;11.38;;;;;;;11.84;57.02;101140.61;1834455;77;20900;-69
2021/10/04 08:04:51;;;;;;;13.68;11.97;;;;;;;12.00;55.14;101147.27;1825908;78;21050;-68
2021/10/04 08:07:18;;;;;;;18.48;11.93;;;;;;;12.15;55.16;101149.09;1816465;78;20940;-70
2021/10/04 08:09:44;;;;;;;15.75;10.93;;;;;;;12.25;54.94;101148.04;1846956;77;21031;-69
2021/10/04 08:12:10;;;;;;;16.52;10.90;;;;;;;12.37;54.81;101143.56;1837673;77;21307;-70
2021/10/04 08:14:37;;;;;;;22.40;11.70;;;;;;;12.51;54.62;101147.73;1828091;77;21028;-69
2021/10/04 08:17:03;;;;;;;15.72;9.63;;;;;;;12.63;54.17;101145.08;1828516;77;20956;-68
2021/10/04 08:19:30;;;;;;;10.95;9.28;;;;;;;12.75;53.19;101147.33;1818013;78;20968;-68
2021/10/04 08:21:56;;;;;;;18.82;9.95;;;;;;;12.88;52.50;101140.38;1812129;78;21488;-69
2021/10/04 08:24:22;;;;;;;11.63;8.25;;;;;;;13.00;51.32;101145.28;1812112;78;21149;-70
2021/10/04 08:26:49;;;;;;;10.20;8.75;;;;;;;13.14;50.61;101137.03;1815835;78;21343;-70
2021/10/04 08:29:15;;;;;;;12.70;10.40;;;;;;;13.27;49.18;101143.58;1819668;78;20915;-69
2021/10/04 08:31:41;;;;;;;14.43;9.28;;;;;;;13.37;49.02;101141.95;1819740;78;21039;-69
2021/10/04 08:34:08;;;;;;;12.75;7.35;;;;;;;13.48;48.31;101143.00;1819709;78;20943;-70
2021/10/04 08:36:35;;;;;;;13.55;8.23;;;;;;;13.58;48.46;101143.78;1819778;78;21045;-69
2021/10/04 08:39:04;;;;;;;12.30;8.20;;;;;;;13.69;48.42;101144.33;1820139;78;21476;-70
2021/10/04 08:41:33;;;;;;;10.72;7.08;;;;;;;13.81;47.66;101141.91;1796521;78;21538;-70
2021/10/04 08:44:01;;;;;;;10.13;7.00;;;;;;;13.95;46.63;101139.81;1796694;78;21160;-70
2021/10/04 08:46:28;;;;;;;10.03;6.25;;;;;;;14.06;45.29;101143.01;1771185;80;21630;-69
2021/10/04 08:48:54;;;;;;;11.12;7.08;;;;;;;14.13;45.53;101135.60;1796536;78;21488;-70
2021/10/04 08:51:22;;;;;;;10.20;6.42;;;;;;;14.21;45.57;101138.46;1775161;79;21070;-67
2021/10/04 08:53:49;;;;;;;9.83;6.40;;;;;;;14.30;44.10;101138.37;1796485;78;21038;-65
2021/10/04 08:56:15;;;;;;;11.70;6.80;;;;;;;14.39;43.93;101141.03;1800314;79;21047;-68
2021/10/04 08:58:41;;;;;;;8.33;5.53;;;;;;;14.50;43.70;101140.19;1819601;78;21116;-69
2021/10/04 09:01:09;;;;;;;6.80;5.30;;;;;;;14.59;42.46;101137.92;1819590;78;21083;-69
2021/10/04 09:03:50;;;;;;;14.43;6.45;;;;;;;14.67;42.29;101142.97;1819673;78;21015;-69
2021/10/04 09:06:35;;;;;;;12.53;5.60;;;;;;;14.74;42.36;101139.05;1808912;78;21086;-69
2021/10/04 09:09:09;;;;;;;8.50;6.22;;;;;;;14.84;42.21;101150.61;1797131;79;21154;-72
2021/10/04 09:11:42;;;;;;;9.53;6.72;;;;;;;14.92;42.18;101135.83;1775028;79;20994;-70
2021/10/04 09:14:17;;;;;;;5.47;4.20;;;;;;;15.00;41.54;101142.23;1775628;79;21243;-69
2021/10/04 09:17:03;;;;;;;8.53;5.67;;;;;;;15.06;41.10;101133.94;1800166;79;21510;-68
2021/10/04 09:19:38;;;;;;;6.70;5.45;;;;;;;15.11;41.24;101127.25;1797339;79;22206;-68
2021/10/04 09:22:20;;;;;;;7.22;5.20;;;;;;;15.21;41.38;101126.61;1822135;77;20948;-69
2021/10/04 09:25:02;;;;;;;7.58;5.25;;;;;;;15.31;40.63;101127.31;1821284;77;20985;-70
2021/10/04 09:27:33;;;;;;;10.55;5.17;;;;;;;15.43;40.02;101121.29;1846715;77;21261;-70
2021/10/04 09:30:12;;;;;;;5.03;4.12;;;;;;;15.54;39.59;101117.71;1818404;78;21008;-69
2021/10/04 09:32:43;;;;;;;10.78;4.42;;;;;;;15.60;39.25;101122.95;1814344;77;20979;-69
2021/10/04 09:35:12;;;;;;;9.65;6.33;;;;;;;15.61;39.53;101112.39;1806747;77;20916;-68
2021/10/04 09:37:39;;;;;;;6.75;4.87;;;;;;;15.64;39.89;101115.13;1817983;77;21039;-69
2021/10/04 09:40:08;;;;;;;8.65;5.15;;;;;;;15.71;39.46;101114.44;1814216;79;21182;-69
2021/10/04 09:42:39;;;;;;;5.65;4.30;;;;;;;15.76;39.50;101113.69;1811168;79;20928;-68
2021/10/04 09:45:06;;;;;;;9.75;6.17;;;;;;;15.76;39.74;101110.98;1814324;79;21043;-69
2021/10/04 09:47:37;;;;;;;5.42;4.92;;;;;;;15.80;39.88;101108.87;1833027;77;21475;-70
2021/10/04 09:50:14;;;;;;;6.25;5.25;;;;;;;15.84;39.87;101102.39;1768535;80;21087;-69
2021/10/04 09:52:59;;;;;;;10.80;5.37;;;;;;;15.93;39.54;101107.67;1823589;77;21031;-70
2021/10/04 09:55:43;;;;;;;11.45;5.70;;;;;;;15.96;39.14;101097.17;1823379;77;21035;-68
2021/10/04 09:58:21;;;;;;;5.92;4.65;;;;;;;16.03;39.18;101099.67;1846447;77;21508;-68
2021/10/04 10:00:56;;;;;;;6.70;6.00;;;;;;;16.14;38.92;101107.72;1804698;77;20968;-71
2021/10/04 10:03:30;;;;;;;5.62;4.55;;;;;;;16.23;38.75;101104.55;1787741;79;21155;-68
2021/10/04 10:05:58;;;;;;;10.82;5.03;;;;;;;16.22;38.61;101095.58;1822162;78;21509;-68
2021/10/04 10:08:28;;;;;;;11.95;4.45;;;;;;;16.24;38.07;101099.41;1739118;81;38835;-72
2021/10/04 10:11:00;;;;;;;12.98;8.83;;;;;;;16.26;38.56;101101.35;1820166;77;20943;-71
2021/10/04 10:13:29;;;;;;;10.35;5.20;;;;;;;16.36;38.21;101097.38;1801877;77;21499;-71
2021/10/04 10:16:06;;;;;;;6.30;5.65;;;;;;;16.44;38.17;101088.80;1819074;77;20924;-69
2021/10/04 10:18:54;;;;;;;10.15;4.58;;;;;;;16.51;38.20;101090.77;1735725;80;21810;-70
2021/10/04 10:21:26;;;;;;;12.73;4.80;;;;;;;16.64;38.24;101093.67;1775143;80;20873;-73
2021/10/04 10:23:59;;;;;;;12.75;6.35;;;;;;;16.68;38.29;101098.88;1775029;80;21062;-71
2021/10/04 10:26:37;;;;;;;9.50;3.67;;;;;;;16.76;38.34;101099.23;1807198;79;21057;-73
2021/10/04 10:29:21;;;;;;;4.83;4.33;;;;;;;16.84;37.79;101096.57;1774293;79;21018;-76
2021/10/04 10:31:56;;;;;;;5.55;4.53;;;;;;;16.86;37.56;101090.36;1797206;79;21831;-76
2021/10/04 10:34:39;;;;;;;11.35;5.00;;;;;;;16.81;37.71;101082.97;1776842;79;20951;-70
2021/10/04 10:37:23;;;;;;;9.63;4.62;;;;;;;16.78;38.00;101084.03;1807455;79;21039;-70
2021/10/04 10:40:10;;;;;;;9.58;5.08;;;;;;;16.79;38.30;101082.94;1807018;79;21066;-67
2021/10/04 10:42:41;;;;;;;9.13;5.42;;;;;;;16.78;38.45;101080.78;1802424;79;20967;-72
2021/10/04 10:45:11;;;;;;;13.55;6.42;;;;;;;16.81;38.62;101076.72;1825061;77;21137;-72
2021/10/04 10:47:45;;;;;;;9.83;5.80;;;;;;;16.84;38.66;101081.63;1822028;77;20920;-72
2021/10/04 10:50:29;;;;;;;17.98;6.42;;;;;;;16.85;38.67;101081.37;1819209;77;21040;-68
2021/10/04 10:53:01;;;;;;;8.10;5.83;;;;;;;16.92;39.01;101076.56;1831563;77;20924;-70
2021/10/04 10:55:34;;;;;;;8.43;5.67;;;;;;;16.97;38.67;101071.72;1805520;78;21473;-76
2021/10/04 10:58:09;;;;;;;11.00;5.75;;;;;;;17.10;38.41;101072.64;1799257;78;21097;-72
2021/10/04 11:00:46;;;;;;;6.83;5.78;;;;;;;17.26;38.38;101074.95;1801898;79;21013;-71
2021/10/04 11:03:18;;;;;;;7.33;5.97;;;;;;;17.38;37.85;101073.67;1775333;80;20981;-76
2021/10/04 11:06:06;;;;;;;13.38;7.08;;;;;;;17.51;37.95;101078.38;1791405;79;21010;-76
2021/10/04 11:08:47;;;;;;;9.63;5.72;;;;;;;17.58;37.71;101075.72;1770519;79;21483;-78
2021/10/04 11:11:18;;;;;;;10.75;6.20;;;;;;;17.74;37.71;101066.61;1804510;78;21704;-76
2021/10/04 11:14:06;;;;;;;10.85;5.47;;;;;;;17.76;37.36;101063.60;1849503;77;20913;-74
2021/10/04 11:16:38;;;;;;;5.75;4.95;;;;;;;17.82;37.27;101065.28;1839856;77;20955;-74
2021/10/04 11:19:05;;;;;;;6.80;5.30;;;;;;;17.79;36.55;101063.09;1848842;77;21463;-69
2021/10/04 11:21:34;;;;;;;7.28;6.00;;;;;;;17.76;36.92;101062.24;1850157;77;21493;-74